RKTN/TAE METAR and TAF weather

Enter ICAO airport designator
Station Type Date Time Source
RKTN METAR 2020/02/19 14:00 UTC NOAA

RKTN 191400Z 14002KT CAVOK 02/M04 Q1029


Station Type Date Time Source
RKTN Decoded METAR 2020/02/19 14:00 UTC NOAA

Taegu Ab, Korea, South (RKTN) 35-54N 128-39E 37M
Feb 19, 2020 - 09:00 AM EST / 2020.02.19 1400 UTC
Wind: from the SE (140 degrees) at 2 MPH (2 KT):0
Visibility: greater than 7 mile(s):0
Temperature: 35 F (2 C)
Dew Point: 24 F (-4 C)
Relative Humidity: 64%
Pressure (altimeter): 30.39 in. Hg (1029 hPa)
ob: RKTN 191400Z 14002KT CAVOK 02/M04 Q1029
cycle: 14

Station Type Date Time Source
RKTN TAF 2020/02/19 12:06 UTC NOAA

TAF RKTN 191100Z 1912/2018 30006KT 9999 FEW040 BKN200 TNM01/1921Z TX13/2006Z

Example: see airport list